Time;durP1;ratioP1;P1;durP2;ratioP2;P2;SDS_P1;SDS_P2;PMS_P1;PMS_P2;Temp;Humidity;BMP_temperature;BMP_pressure;BME280_temperature;BME280_humidity;BME280_pressure;Samples;Min_cycle;Max_cycle;Signal;HPM_P1;HPM_P2
2023/01/23 00:00:15;;;;;;;9.88;3.45;;;;;;;-146.25;96.41;52491.88;2055456;28;38147;-75
2023/01/23 00:01:25;;;;;;;8.23;3.60;;;;;;;-146.25;95.92;52530.41;2055571;28;36046;-75
2023/01/23 00:02:27;;;;;;;6.32;3.28;;;;;;;-146.25;95.87;52489.84;2055962;28;20036;-75
2023/01/23 00:03:32;;;;;;;8.55;3.72;;;;;;;-146.25;96.35;52508.09;2055362;28;39863;-75
2023/01/23 00:04:33;;;;;;;6.57;3.70;;;;;;;-146.25;96.58;52542.56;2054857;28;40303;-75
2023/01/23 00:05:35;;;;;;;6.50;3.08;;;;;;;-146.25;96.18;52520.28;2055485;28;20047;-75
2023/01/23 00:06:37;;;;;;;7.57;3.50;;;;;;;-146.25;96.07;52483.78;2054766;28;39748;-75
2023/01/23 00:07:38;;;;;;;11.02;3.58;;;;;;;-146.25;96.50;52483.78;2055020;28;42344;-75
2023/01/23 00:08:44;;;;;;;7.35;3.22;;;;;;;-146.25;96.26;52516.22;2056040;28;20036;-75
2023/01/23 00:09:46;;;;;;;4.60;3.10;;;;;;;-146.25;96.33;52546.63;2061988;28;40317;-75
2023/01/23 00:10:47;;;;;;;7.32;3.90;;;;;;;-146.25;96.57;52522.28;2063055;28;26044;-75
2023/01/23 00:11:49;;;;;;;6.43;3.50;;;;;;;-146.25;96.04;52465.53;2055045;28;36987;-75
2023/01/23 00:12:53;;;;;;;7.97;2.95;;;;;;;-146.25;96.03;52481.75;2055253;28;41389;-75
2023/01/23 00:13:59;;;;;;;7.25;3.40;;;;;;;-146.25;96.58;52518.25;2055941;28;23702;-75
2023/01/23 00:15:01;;;;;;;10.93;3.53;;;;;;;-146.25;96.05;52500.00;2054924;28;40858;-75
2023/01/23 00:16:09;;;;;;;8.15;3.38;;;;;;;-146.25;96.06;52528.38;2055338;28;39195;-75
2023/01/23 00:17:11;;;;;;;6.93;3.20;;;;;;;-146.25;96.34;52475.66;2055536;28;38812;-75
2023/01/23 00:18:14;;;;;;;9.07;3.58;;;;;;;-146.25;96.33;52526.34;2055251;28;41251;-75
2023/01/23 00:19:16;;;;;;;8.38;3.65;;;;;;;-146.25;96.76;52471.59;2055607;28;20066;-75
2023/01/23 00:20:18;;;;;;;7.45;3.45;;;;;;;-146.25;96.31;52508.09;2055261;28;37022;-75
2023/01/23 00:21:25;;;;;;;10.13;3.60;;;;;;;-146.25;96.13;52495.94;2055218;28;38866;-75
2023/01/23 00:22:27;;;;;;;6.93;3.42;;;;;;;-146.25;96.23;52512.16;2054888;28;39109;-74
2023/01/23 00:23:28;;;;;;;8.88;3.35;;;;;;;-146.25;96.02;52520.28;2054648;28;42335;-75
2023/01/23 00:24:30;;;;;;;7.57;3.50;;;;;;;-146.25;95.91;52497.97;2055848;28;26366;-74
2023/01/23 00:25:35;;;;;;;5.80;3.90;;;;;;;-146.25;96.17;52518.25;2054779;28;37798;-75
2023/01/23 00:26:37;;;;;;;8.77;3.70;;;;;;;-146.25;96.03;52504.03;2055000;28;41566;-75
2023/01/23 00:27:39;;;;;;;7.15;3.20;;;;;;;-146.25;96.39;52518.25;2055498;28;35643;-75
2023/01/23 00:28:42;;;;;;;5.10;2.80;;;;;;;-146.25;96.60;52530.41;2054525;28;37827;-75
2023/01/23 00:29:44;;;;;;;5.10;2.97;;;;;;;-146.25;95.91;52504.03;2054685;28;29473;-75
2023/01/23 00:30:46;;;;;;;6.40;2.97;;;;;;;-146.25;96.51;52532.44;2054864;28;25926;-75
2023/01/23 00:31:49;;;;;;;7.43;3.40;;;;;;;-146.25;95.99;52502.03;2054616;28;35251;-74
2023/01/23 00:32:51;;;;;;;6.38;3.05;;;;;;;-146.25;95.87;52526.34;2059396;28;30987;-76
2023/01/23 00:34:13;;;;;;;10.50;3.58;;;;;;;-146.25;96.00;52493.91;2069707;28;39933;-75
2023/01/23 00:35:15;;;;;;;7.30;3.35;;;;;;;-146.25;96.35;52502.03;2062920;28;34241;-77
2023/01/23 00:36:18;;;;;;;6.60;2.92;;;;;;;-146.25;96.64;52562.84;2063899;28;20776;-74
2023/01/23 00:37:20;;;;;;;6.45;3.33;;;;;;;-146.25;96.28;52516.22;2063495;28;20038;-77
2023/01/23 00:38:23;;;;;;;8.80;3.42;;;;;;;-146.25;96.52;52522.28;2056897;28;20059;-77
2023/01/23 00:39:25;;;;;;;6.20;3.45;;;;;;;-146.25;96.48;52502.03;2046542;28;21556;-77
2023/01/23 00:40:26;;;;;;;8.40;3.60;;;;;;;-146.25;96.50;52487.81;2046917;28;27766;-77
2023/01/23 00:41:28;;;;;;;7.38;2.92;;;;;;;-146.25;96.56;52562.84;2055950;28;20046;-77
2023/01/23 00:42:30;;;;;;;5.68;2.95;;;;;;;-146.25;96.47;52540.53;2054372;28;40330;-76
2023/01/23 00:43:34;;;;;;;9.20;3.17;;;;;;;-146.25;96.78;52502.03;2054822;28;20091;-76
2023/01/23 00:44:39;;;;;;;8.65;3.50;;;;;;;-146.25;96.58;52518.25;2056537;28;29548;-75
2023/01/23 00:45:41;;;;;;;6.72;3.10;;;;;;;-146.25;97.16;52500.00;2056875;28;25450;-77
2023/01/23 00:46:43;;;;;;;7.63;2.85;;;;;;;-146.25;97.22;52512.16;2056480;28;36848;-76
2023/01/23 00:47:44;;;;;;;9.63;2.90;;;;;;;-146.25;96.63;52481.75;2064229;28;21497;-76
2023/01/23 00:48:47;;;;;;;6.68;3.38;;;;;;;-146.25;97.22;52510.13;2063175;28;40961;-74
2023/01/23 00:49:48;;;;;;;8.00;3.15;;;;;;;-146.25;97.09;52526.34;2055861;28;28474;-76
2023/01/23 00:50:50;;;;;;;7.53;2.97;;;;;;;-146.25;97.25;52522.28;2056745;28;29444;-76
2023/01/23 00:51:55;;;;;;;6.88;3.28;;;;;;;-146.25;97.13;52493.91;2056381;28;36189;-76
2023/01/23 00:52:56;;;;;;;6.88;3.00;;;;;;;-146.25;97.34;52469.56;2056439;28;20939;-76
2023/01/23 00:54:01;;;;;;;6.60;3.00;;;;;;;-146.25;96.58;52532.44;2064140;28;20209;-76
2023/01/23 00:55:06;;;;;;;6.15;3.05;;;;;;;-146.25;96.81;52514.19;2063578;28;39126;-76
2023/01/23 00:56:11;;;;;;;7.80;3.10;;;;;;;-146.25;96.99;52502.03;2056138;28;20812;-76
2023/01/23 00:57:12;;;;;;;7.10;2.83;;;;;;;-146.25;96.43;52459.44;2064598;28;20184;-74
2023/01/23 00:58:15;;;;;;;6.13;2.50;;;;;;;-146.25;97.08;52528.38;2064681;28;20162;-74
2023/01/23 00:59:16;;;;;;;6.22;2.58;;;;;;;-146.25;96.84;52491.88;2055922;28;33589;-74
2023/01/23 01:00:18;;;;;;;10.10;3.17;;;;;;;-146.25;97.05;52504.03;2056029;28;32232;-74
2023/01/23 01:01:24;;;;;;;7.30;2.50;;;;;;;-146.25;97.35;52506.06;2056094;28;20286;-76
2023/01/23 01:02:27;;;;;;;7.60;2.63;;;;;;;-146.25;96.61;52497.97;2064643;28;20489;-76
2023/01/23 01:03:29;;;;;;;6.35;3.00;;;;;;;-146.25;96.75;52497.97;2064416;28;20106;-76
2023/01/23 01:04:31;;;;;;;6.57;3.05;;;;;;;-146.25;97.19;52491.88;2055991;28;36120;-76
2023/01/23 01:05:36;;;;;;;7.13;3.30;;;;;;;-146.25;96.74;52497.97;2056847;28;21042;-76
2023/01/23 01:06:38;;;;;;;6.57;3.10;;;;;;;-146.25;97.05;52516.22;2055540;28;33291;-76
2023/01/23 01:07:43;;;;;;;5.93;2.65;;;;;;;-146.25;96.87;52479.72;2047955;28;40195;-76
2023/01/23 01:08:45;;;;;;;8.77;3.30;;;;;;;-146.25;96.85;52481.75;2056490;28;27464;-75
2023/01/23 01:09:49;;;;;;;5.45;2.92;;;;;;;-146.25;97.00;52514.19;2064444;28;20884;-74
2023/01/23 01:10:53;;;;;;;7.30;3.08;;;;;;;-146.25;96.94;52491.88;2063583;28;25930;-76
2023/01/23 01:11:55;;;;;;;7.93;3.03;;;;;;;-146.25;97.07;52483.78;2063250;28;37585;-77
2023/01/23 01:13:01;;;;;;;8.63;3.28;;;;;;;-146.25;96.97;52512.16;2055572;28;34906;-76
2023/01/23 01:14:03;;;;;;;7.32;3.15;;;;;;;-146.25;96.94;52534.47;2056716;28;34698;-77
2023/01/23 01:15:07;;;;;;;8.65;3.33;;;;;;;-146.25;96.49;52522.28;2056422;28;28002;-76
2023/01/23 01:16:10;;;;;;;9.18;2.78;;;;;;;-146.25;96.76;52526.34;2055788;28;32794;-76
2023/01/23 01:17:11;;;;;;;4.53;2.92;;;;;;;-146.25;96.96;52530.41;2057127;28;20868;-76
2023/01/23 01:18:14;;;;;;;6.53;2.65;;;;;;;-146.25;97.27;52491.88;2055551;28;34605;-76
2023/01/23 01:19:17;;;;;;;8.13;3.10;;;;;;;-146.25;96.45;52526.34;2064155;28;20039;-76
2023/01/23 01:20:22;;;;;;;8.82;3.05;;;;;;;-146.25;96.75;52481.75;2063903;28;20903;-77
2023/01/23 01:21:24;;;;;;;9.65;3.22;;;;;;;-146.25;96.67;52528.38;2055707;28;31604;-76
2023/01/23 01:22:26;;;;;;;7.72;3.53;;;;;;;-146.25;96.89;52518.25;2056646;28;29124;-77
2023/01/23 01:23:27;;;;;;;7.65;2.88;;;;;;;-146.25;96.78;52485.81;2056782;28;30602;-77
2023/01/23 01:24:29;;;;;;;6.15;3.20;;;;;;;-146.25;96.65;52506.06;2055346;28;34513;-76
2023/01/23 01:25:31;;;;;;;7.00;3.03;;;;;;;-146.25;96.99;52504.03;2064062;28;34249;-76
2023/01/23 01:26:33;;;;;;;6.05;3.30;;;;;;;-146.25;97.06;52512.16;2063284;28;22710;-76
2023/01/23 01:27:35;;;;;;;4.75;3.05;;;;;;;-146.25;96.52;52506.06;2064132;28;20039;-76
2023/01/23 01:28:38;;;;;;;9.90;3.33;;;;;;;-146.25;96.75;52489.84;2064436;28;20872;-77
2023/01/23 01:29:40;;;;;;;10.45;3.65;;;;;;;-146.25;97.17;52524.31;2055507;28;27894;-76
2023/01/23 01:30:42;;;;;;;9.65;3.22;;;;;;;-146.25;96.84;52495.94;2055821;28;31733;-76
2023/01/23 01:31:43;;;;;;;9.57;3.60;;;;;;;-146.25;97.05;52534.47;2056221;28;26252;-76
2023/01/23 01:32:45;;;;;;;10.52;3.60;;;;;;;-146.25;96.70;52530.41;2056646;28;30505;-76
2023/01/23 01:33:49;;;;;;;6.10;3.25;;;;;;;-146.25;97.23;52514.19;2056264;28;20877;-76
2023/01/23 01:34:52;;;;;;;8.63;3.17;;;;;;;-146.25;96.77;52520.28;2056300;28;20082;-76
2023/01/23 01:35:56;;;;;;;8.25;3.70;;;;;;;-146.25;97.04;52479.72;2055069;28;26966;-77
2023/01/23 01:37:01;;;;;;;10.18;3.63;;;;;;;-146.25;96.71;52514.19;2063447;28;35670;-76
2023/01/23 01:38:02;;;;;;;5.50;2.97;;;;;;;-146.25;96.90;52536.50;2055187;28;37917;-76
2023/01/23 01:39:04;;;;;;;7.80;3.42;;;;;;;-146.25;96.68;52506.06;2048241;28;20777;-76
2023/01/23 01:40:14;;;;;;;9.55;3.20;;;;;;;-146.25;97.25;52512.16;2057024;28;20174;-76
2023/01/23 01:41:16;;;;;;;11.20;3.35;;;;;;;-146.25;96.89;52516.22;2056561;28;20078;-76
2023/01/23 01:42:18;;;;;;;8.15;3.25;;;;;;;-146.25;96.63;52526.34;2056505;28;21451;-76
2023/01/23 01:43:24;;;;;;;7.35;3.00;;;;;;;-146.25;96.71;52512.16;2056681;28;20032;-76
2023/01/23 01:44:46;;;;;;;7.00;3.10;;;;;;;-146.25;96.73;52502.03;2056377;28;20055;-76
2023/01/23 01:46:32;;;;;;;6.63;2.85;;;;;;;-146.25;97.01;52483.78;2064472;28;28973;-77
2023/01/23 01:47:34;;;;;;;7.18;3.08;;;;;;;-146.25;96.41;52510.13;2053198;28;20043;-76
2023/01/23 01:49:05;;;;;;;8.15;3.15;;;;;;;-146.25;97.07;52500.00;2056091;28;20130;-76
2023/01/23 01:50:10;;;;;;;8.13;3.50;;;;;;;-146.25;96.84;52518.25;2055839;28;28438;-76
2023/01/23 01:51:21;;;;;;;7.05;2.88;;;;;;;-146.25;96.69;52506.06;2055175;28;36383;-76
2023/01/23 01:52:23;;;;;;;11.00;3.20;;;;;;;-146.25;96.72;52473.63;2056458;28;31921;-76
2023/01/23 01:53:27;;;;;;;7.60;3.10;;;;;;;-146.25;96.52;52554.75;2055381;28;29939;-76
2023/01/23 01:54:42;;;;;;;6.82;3.15;;;;;;;-146.25;96.84;52510.13;2055634;28;29561;-76
2023/01/23 01:55:44;;;;;;;6.43;3.15;;;;;;;-146.25;96.51;52518.25;2055619;28;20051;-76
2023/01/23 01:57:00;;;;;;;5.63;3.20;;;;;;;-146.25;96.58;52520.28;2063213;28;20050;-77
2023/01/23 01:58:02;;;;;;;9.07;3.25;;;;;;;-146.25;97.20;52520.28;2062316;28;20055;-76
2023/01/23 01:59:05;;;;;;;5.95;3.17;;;;;;;-146.25;97.30;52497.97;2055603;28;20134;-76
2023/01/23 02:00:14;;;;;;;7.85;3.30;;;;;;;-146.25;97.11;52497.97;2056105;28;20035;-76
2023/01/23 02:01:19;;;;;;;8.35;3.30;;;;;;;-146.25;97.04;52489.84;2064132;28;20054;-76
2023/01/23 02:02:30;;;;;;;11.77;3.80;;;;;;;-146.25;97.52;52520.28;2062050;28;29059;-76
2023/01/23 02:03:32;;;;;;;9.05;3.40;;;;;;;-146.25;96.89;52526.34;2055822;28;20142;-76
2023/01/23 02:04:42;;;;;;;7.47;3.30;;;;;;;-146.25;97.44;52514.19;2055802;28;26529;-76
2023/01/23 02:05:48;;;;;;;5.82;3.00;;;;;;;-146.25;96.87;52522.28;2055761;28;33371;-76
2023/01/23 02:06:52;;;;;;;6.18;3.25;;;;;;;-146.25;97.25;52522.28;2055509;28;33800;-77
2023/01/23 02:08:05;;;;;;;7.32;3.05;;;;;;;-146.25;97.75;52493.91;2056196;28;20843;-76
2023/01/23 02:09:20;;;;;;;8.90;3.67;;;;;;;-146.25;97.23;52502.03;2047755;28;20040;-76
2023/01/23 02:10:22;;;;;;;7.25;2.92;;;;;;;-146.25;97.76;52495.94;2056379;28;20097;-76
2023/01/23 02:11:24;;;;;;;6.65;3.40;;;;;;;-146.25;97.41;52522.28;2047926;28;20897;-76
2023/01/23 02:12:27;;;;;;;5.22;2.83;;;;;;;-146.25;97.66;52497.97;2047793;28;28178;-76
2023/01/23 02:13:31;;;;;;;8.30;2.85;;;;;;;-146.25;97.27;52481.75;2056187;28;20039;-76
2023/01/23 02:14:33;;;;;;;8.57;3.45;;;;;;;-146.25;97.72;52510.13;2063558;28;21112;-76
2023/01/23 02:15:37;;;;;;;10.15;3.35;;;;;;;-146.25;97.35;52534.47;2056322;28;20605;-75
2023/01/23 02:16:45;;;;;;;9.15;3.20;;;;;;;-146.25;97.12;52506.06;2047315;28;34295;-76
2023/01/23 02:17:51;;;;;;;10.02;3.70;;;;;;;-146.25;97.18;52520.28;2049043;28;20036;-76
2023/01/23 02:19:00;;;;;;;7.25;3.70;;;;;;;-146.25;97.62;52540.53;2056230;28;20039;-76
2023/01/23 02:20:19;;;;;;;6.18;3.42;;;;;;;-146.25;97.23;52534.47;2062803;28;37721;-76
2023/01/23 02:21:23;;;;;;;9.82;3.38;;;;;;;-146.25;97.09;52512.16;2062370;28;20050;-76
2023/01/23 02:22:54;;;;;;;6.93;3.38;;;;;;;-146.25;97.68;52493.91;2055719;28;20109;-76
2023/01/23 02:24:11;;;;;;;7.63;3.30;;;;;;;-146.25;97.25;52508.09;2048133;28;20047;-75
2023/01/23 02:25:57;;;;;;;8.65;3.65;;;;;;;-146.25;97.27;52485.81;2057904;28;20224;-76
2023/01/23 02:27:03;;;;;;;7.95;2.80;;;;;;;-146.25;97.56;52518.25;2032593;29;20049;-76
2023/01/23 02:28:06;;;;;;;8.80;3.10;;;;;;;-146.25;97.52;52512.16;2023227;29;20053;-76
2023/01/23 02:29:13;;;;;;;8.20;3.60;;;;;;;-146.25;97.03;52495.94;2031469;28;20060;-76
2023/01/23 02:30:23;;;;;;;6.93;3.38;;;;;;;-146.25;97.37;52504.03;2057440;28;20039;-76
2023/01/23 02:31:27;;;;;;;7.35;3.60;;;;;;;-146.25;97.73;52548.66;2063388;28;20993;-76
2023/01/23 02:32:32;;;;;;;8.25;3.55;;;;;;;-146.25;97.37;52477.69;2063529;28;20075;-76
2023/01/23 02:33:34;;;;;;;8.05;3.80;;;;;;;-146.25;97.76;52540.53;2062570;28;20039;-76
2023/01/23 02:34:36;;;;;;;8.38;3.65;;;;;;;-146.25;97.75;52558.78;2057318;28;20043;-76
2023/01/23 02:35:38;;;;;;;6.10;3.63;;;;;;;-146.25;97.69;52475.66;2056327;28;26555;-76
2023/01/23 02:36:47;;;;;;;8.32;3.80;;;;;;;-146.25;98.02;52504.03;2055892;28;20923;-76
2023/01/23 02:37:55;;;;;;;9.15;3.42;;;;;;;-146.25;97.50;52510.13;2064043;28;20057;-76
2023/01/23 02:39:13;;;;;;;6.55;3.70;;;;;;;-146.25;97.72;52465.53;2061560;28;24727;-76
2023/01/23 02:40:17;;;;;;;5.40;3.47;;;;;;;-146.25;97.58;52502.03;2055511;28;20051;-76
2023/01/23 02:41:32;;;;;;;5.78;3.58;;;;;;;-146.25;97.65;52526.34;2054731;28;20039;-76
2023/01/23 02:42:34;;;;;;;9.07;4.00;;;;;;;-146.25;97.78;52497.97;2055689;28;20036;-76
2023/01/23 02:43:43;;;;;;;7.72;3.60;;;;;;;-146.25;97.46;52493.91;2047004;28;20836;-75
2023/01/23 02:44:45;;;;;;;8.52;3.60;;;;;;;-146.25;98.04;52497.97;2048049;28;20055;-76
2023/01/23 02:45:52;;;;;;;7.85;3.38;;;;;;;-146.25;97.96;52534.47;2047410;28;20044;-76
2023/01/23 02:46:58;;;;;;;8.32;4.03;;;;;;;-146.25;97.52;52485.81;2046396;28;20052;-75
2023/01/23 02:48:00;;;;;;;9.13;3.80;;;;;;;-146.25;97.25;52512.16;2063448;28;20042;-76
2023/01/23 02:49:03;;;;;;;8.90;4.10;;;;;;;-146.25;97.47;52544.59;2063798;28;20035;-76
2023/01/23 02:50:05;;;;;;;11.77;4.00;;;;;;;-146.25;97.61;52497.97;2063529;28;20185;-76
2023/01/23 02:51:07;;;;;;;7.32;3.55;;;;;;;-146.25;97.79;52500.00;2063773;28;22400;-75
2023/01/23 02:52:12;;;;;;;9.32;4.35;;;;;;;-146.25;97.35;52510.13;2055663;28;20885;-76
2023/01/23 02:53:18;;;;;;;7.07;4.00;;;;;;;-146.25;98.04;52516.22;2039529;29;23680;-76
2023/01/23 02:54:22;;;;;;;8.48;4.20;;;;;;;-146.25;97.64;52469.56;2040264;28;20052;-76
2023/01/23 02:55:36;;;;;;;10.88;4.70;;;;;;;-146.25;97.17;52506.06;2055865;28;20050;-76
2023/01/23 02:56:38;;;;;;;8.43;4.38;;;;;;;-146.25;97.58;52518.25;2053993;28;20950;-76
2023/01/23 02:57:40;;;;;;;6.85;4.20;;;;;;;-146.25;97.86;52532.44;2058626;28;20043;-76
2023/01/23 03:00:15;;;;;;;7.32;3.90;;;;;;;-146.25;97.42;52538.53;2055973;28;28185;-76
2023/01/23 03:01:18;;;;;;;6.57;4.00;;;;;;;-146.25;97.11;52536.50;2047667;28;20098;-76
2023/01/23 03:02:19;;;;;;;9.10;4.25;;;;;;;-146.25;97.83;52469.56;2054873;28;24976;-76
2023/01/23 03:03:22;;;;;;;8.70;4.20;;;;;;;-146.25;97.21;52524.31;2063500;28;20067;-76
2023/01/23 03:04:24;;;;;;;11.23;4.63;;;;;;;-146.25;97.77;52506.06;2055227;28;27182;-76
2023/01/23 03:05:27;;;;;;;8.82;4.30;;;;;;;-146.25;96.96;52487.81;2055013;28;29601;-76
2023/01/23 03:06:35;;;;;;;8.80;4.10;;;;;;;-146.25;97.56;52526.34;2055704;28;27150;-76
2023/01/23 03:07:36;;;;;;;7.18;4.53;;;;;;;-146.25;97.68;52536.50;2054705;28;20124;-76
2023/01/23 03:08:46;;;;;;;8.15;4.63;;;;;;;-146.25;97.14;52506.06;2055356;28;31459;-76
2023/01/23 03:09:48;;;;;;;5.68;2.95;;;;;;;-146.25;97.63;52497.97;2055657;28;20904;-76
2023/01/23 03:10:50;;;;;;;6.75;3.90;;;;;;;-146.25;97.66;52546.63;2063800;28;20896;-76
2023/01/23 03:11:54;;;;;;;9.13;3.80;;;;;;;-146.25;97.02;52528.38;2063635;28;20070;-76
2023/01/23 03:13:02;;;;;;;9.73;4.40;;;;;;;-146.25;97.46;52510.13;2054913;28;20043;-76
2023/01/23 03:14:09;;;;;;;7.10;4.47;;;;;;;-146.25;97.55;52506.06;2055662;28;20051;-76
2023/01/23 03:15:11;;;;;;;8.63;4.20;;;;;;;-146.25;97.31;52479.72;2054878;28;20134;-76
2023/01/23 03:16:13;;;;;;;6.97;4.22;;;;;;;-146.25;97.39;52508.09;2047680;28;20023;-76
2023/01/23 03:17:15;;;;;;;6.75;4.10;;;;;;;-146.25;97.19;52524.31;2063270;28;20047;-74
2023/01/23 03:18:18;;;;;;;9.88;4.03;;;;;;;-146.25;97.43;52491.88;2062777;28;20031;-76
2023/01/23 03:19:23;;;;;;;8.27;3.72;;;;;;;-146.25;97.80;52504.03;2063502;28;20162;-76
2023/01/23 03:20:26;;;;;;;9.50;4.35;;;;;;;-146.25;97.99;52500.00;2063120;28;20038;-76
2023/01/23 03:21:28;;;;;;;5.68;4.30;;;;;;;-146.25;97.76;52481.75;2047327;28;31395;-76
2023/01/23 03:22:29;;;;;;;7.20;4.18;;;;;;;-146.25;97.53;52485.81;2047580;28;21189;-75
2023/01/23 03:23:31;;;;;;;11.05;4.38;;;;;;;-146.25;97.28;52512.16;2054266;28;21789;-75
2023/01/23 03:24:33;;;;;;;9.55;4.47;;;;;;;-146.25;97.86;52510.13;2055147;28;29840;-76
2023/01/23 03:25:35;;;;;;;7.75;4.18;;;;;;;-146.25;98.26;52528.38;2055253;28;20031;-76
2023/01/23 03:26:39;;;;;;;10.40;4.97;;;;;;;-146.25;98.19;52504.03;2055675;28;20186;-76
2023/01/23 03:27:42;;;;;;;7.57;4.05;;;;;;;-146.25;98.34;52495.94;2055621;28;20174;-76
2023/01/23 03:30:21;;;;;;;7.70;4.45;;;;;;;-146.25;98.07;52530.41;2046031;28;37568;-76
2023/01/23 03:31:25;;;;;;;9.38;4.68;;;;;;;-146.25;98.00;52495.94;2047037;28;20063;-76
2023/01/23 03:32:28;;;;;;;8.55;4.40;;;;;;;-146.25;97.45;52510.13;2040450;28;20056;-76
2023/01/23 03:33:30;;;;;;;8.30;4.60;;;;;;;-146.25;98.00;52522.28;2047184;28;20044;-76
2023/01/23 03:34:32;;;;;;;9.65;4.97;;;;;;;-146.25;98.17;52532.44;2054752;28;20099;-76
2023/01/23 03:35:34;;;;;;;7.63;4.47;;;;;;;-146.25;98.03;52532.44;2055426;28;26517;-76
2023/01/23 03:36:37;;;;;;;8.88;4.68;;;;;;;-146.25;97.79;52497.97;2055326;28;20048;-76
2023/01/23 03:37:39;;;;;;;6.07;4.40;;;;;;;-146.25;97.83;52524.31;2055481;28;20987;-76
2023/01/23 03:41:23;;;;;;;8.48;4.55;;;;;;;-146.25;97.43;52500.00;2054666;28;34336;-75
2023/01/23 03:41:24;;;;;;;11.30;4.85;;;;;;;-146.25;97.48;52497.97;2055692;28;20035;-76
2023/01/23 03:42:27;;;;;;;10.45;4.40;;;;;;;-146.25;98.32;52497.97;2063431;28;20043;-76
2023/01/23 03:43:32;;;;;;;8.57;4.07;;;;;;;-146.25;97.77;52489.84;2062601;28;20184;-76
2023/01/23 03:44:34;;;;;;;10.18;4.47;;;;;;;-146.25;98.17;52512.16;2055399;28;36640;-76
2023/01/23 03:45:36;;;;;;;8.63;5.05;;;;;;;-146.25;98.06;52536.50;2055246;28;20055;-76
2023/01/23 03:46:37;;;;;;;9.65;4.95;;;;;;;-146.25;98.00;52554.75;2055408;28;20890;-76
2023/01/23 03:47:39;;;;;;;8.40;4.50;;;;;;;-146.25;98.15;52534.47;2055145;28;20916;-76
2023/01/23 03:48:41;;;;;;;7.03;4.80;;;;;;;-146.25;97.61;52518.25;2063019;28;20054;-76
2023/01/23 03:49:43;;;;;;;8.45;4.38;;;;;;;-146.25;97.96;52524.31;2063629;28;20038;-75
2023/01/23 03:50:45;;;;;;;9.75;5.10;;;;;;;-146.25;98.19;52522.28;2047314;28;20103;-75
2023/01/23 03:51:46;;;;;;;11.40;4.65;;;;;;;-146.25;97.63;52514.19;2047329;28;20044;-75
2023/01/23 03:52:48;;;;;;;8.18;4.97;;;;;;;-146.25;97.63;52489.84;2062998;28;20051;-75
2023/01/23 03:53:50;;;;;;;7.07;4.55;;;;;;;-146.25;98.04;52510.13;2062296;28;20038;-75
2023/01/23 03:54:52;;;;;;;8.13;4.68;;;;;;;-146.25;97.84;52518.25;2055416;28;37025;-75
2023/01/23 03:55:53;;;;;;;7.32;4.93;;;;;;;-146.25;97.91;52502.03;2055127;28;20109;-75
2023/01/23 03:57:01;;;;;;;8.52;4.88;;;;;;;-146.25;98.19;52497.97;2063487;28;20250;-75
2023/01/23 03:58:35;;;;;;;12.13;5.85;;;;;;;-146.25;98.24;52463.50;2042212;28;20051;-75
2023/01/23 03:59:36;;;;;;;10.15;5.55;;;;;;;-146.25;97.72;52465.53;2057506;28;20160;-75
2023/01/23 04:00:38;;;;;;;6.75;4.97;;;;;;;-146.25;98.06;52540.53;2063618;28;20848;-75
2023/01/23 04:01:41;;;;;;;11.05;5.57;;;;;;;-146.25;98.44;52506.06;2063233;28;20047;-75
2023/01/23 04:02:43;;;;;;;7.82;5.05;;;;;;;-146.25;97.61;52526.34;2062981;28;30634;-75
2023/01/23 04:03:48;;;;;;;12.50;5.38;;;;;;;-146.25;98.55;52514.19;2063172;28;20047;-75
2023/01/23 04:04:50;;;;;;;9.95;5.25;;;;;;;-146.25;98.27;52504.03;2063157;28;20051;-75
2023/01/23 04:05:57;;;;;;;12.48;5.45;;;;;;;-146.25;98.29;52497.97;2063125;28;20035;-75
2023/01/23 04:07:01;;;;;;;9.55;4.80;;;;;;;-146.25;97.75;52530.41;2054082;28;20051;-75
2023/01/23 04:08:04;;;;;;;8.93;4.15;;;;;;;-146.25;98.40;52493.91;2047819;28;21083;-75
2023/01/23 04:09:06;;;;;;;7.35;4.68;;;;;;;-146.25;97.81;52536.50;2055377;28;20039;-75
2023/01/23 04:10:08;;;;;;;10.48;5.07;;;;;;;-146.25;98.63;52548.66;2063306;28;20047;-75
2023/01/23 04:11:14;;;;;;;9.38;4.25;;;;;;;-146.25;98.50;52544.59;2054663;28;20039;-75
2023/01/23 04:12:16;;;;;;;7.22;4.00;;;;;;;-146.25;98.45;52526.34;2054781;28;29331;-75
2023/01/23 04:13:21;;;;;;;7.95;4.63;;;;;;;-146.25;98.14;52526.34;2054291;28;20047;-75
2023/01/23 04:14:25;;;;;;;6.82;3.63;;;;;;;-146.25;98.12;52487.81;2055191;28;20055;-75
2023/01/23 04:15:27;;;;;;;6.80;4.22;;;;;;;-146.25;98.33;52542.56;2055069;28;20048;-75
2023/01/23 04:16:31;;;;;;;8.10;4.07;;;;;;;-146.25;97.94;52562.84;2055591;28;20137;-75
2023/01/23 04:17:35;;;;;;;7.47;4.22;;;;;;;-146.25;97.89;52540.53;2055177;28;20049;-75
2023/01/23 04:18:37;;;;;;;6.97;3.53;;;;;;;-146.25;98.40;52504.03;2046955;28;20181;-75
2023/01/23 04:19:39;;;;;;;8.38;4.07;;;;;;;-146.25;98.01;52530.41;2063322;28;20035;-75
2023/01/23 04:20:41;;;;;;;6.30;3.47;;;;;;;-146.25;98.19;52520.28;2054889;28;20047;-75
2023/01/23 04:21:43;;;;;;;9.73;3.78;;;;;;;-146.25;97.74;52500.00;2047271;28;26829;-75
2023/01/23 04:22:46;;;;;;;6.45;3.45;;;;;;;-146.25;98.11;52516.22;2055774;28;20038;-75
2023/01/23 04:23:48;;;;;;;8.05;3.72;;;;;;;-146.25;97.43;52524.31;2055042;28;20904;-75
2023/01/23 04:24:50;;;;;;;10.65;4.25;;;;;;;-146.25;97.46;52518.25;2055068;28;20861;-73
2023/01/23 04:25:53;;;;;;;6.97;3.80;;;;;;;-146.25;97.96;52489.84;2063326;28;20927;-75
2023/01/23 04:26:55;;;;;;;5.95;3.75;;;;;;;-146.25;97.81;52512.16;2063082;28;20050;-75
2023/01/23 04:28:02;;;;;;;5.60;3.50;;;;;;;-146.25;97.42;52502.03;2054977;28;20031;-75
2023/01/23 04:29:04;;;;;;;6.72;3.60;;;;;;;-146.25;97.14;52495.94;2046601;28;20066;-75
2023/01/23 04:30:08;;;;;;;5.97;3.42;;;;;;;-146.25;97.66;52526.34;2056324;28;20126;-75
2023/01/23 04:31:10;;;;;;;7.68;3.65;;;;;;;-146.25;97.79;52514.19;2062805;28;20043;-75
2023/01/23 04:32:13;;;;;;;6.60;3.65;;;;;;;-146.25;97.17;52514.19;2063211;28;20824;-75
2023/01/23 04:33:19;;;;;;;4.15;3.00;;;;;;;-146.25;97.08;52518.25;2062491;28;20038;-75
2023/01/23 04:34:21;;;;;;;4.95;3.45;;;;;;;-146.25;97.49;52526.34;2054931;28;32255;-75
2023/01/23 04:35:26;;;;;;;9.55;3.35;;;;;;;-146.25;97.20;52520.28;2054679;28;20226;-75
2023/01/23 04:36:28;;;;;;;9.27;3.38;;;;;;;-146.25;97.20;52522.28;2062889;28;28315;-75
2023/01/23 04:37:30;;;;;;;5.88;3.38;;;;;;;-146.25;97.10;52469.56;2062980;28;20173;-75
2023/01/23 04:38:33;;;;;;;5.15;3.28;;;;;;;-146.25;97.56;52522.28;2063281;28;20851;-75
2023/01/23 04:39:52;;;;;;;4.80;3.13;;;;;;;-146.25;97.11;52481.75;2060547;28;20047;-74
2023/01/23 04:40:59;;;;;;;5.82;3.35;;;;;;;-146.25;96.85;52475.66;2062863;28;20066;-75
2023/01/23 04:42:03;;;;;;;6.38;3.25;;;;;;;-146.25;97.50;52514.19;2062503;28;21039;-75
2023/01/23 04:43:36;;;;;;;5.90;3.20;;;;;;;-146.25;97.27;52491.88;2050295;28;20044;-75
2023/01/23 04:44:41;;;;;;;7.25;2.80;;;;;;;-146.25;97.63;52506.06;2055657;28;20063;-75
2023/01/23 04:46:03;;;;;;;6.75;3.38;;;;;;;-146.25;96.99;52516.22;2051391;28;20411;-75
2023/01/23 04:47:05;;;;;;;3.75;3.08;;;;;;;-146.25;97.51;52534.47;2045181;28;20048;-75
2023/01/23 04:48:08;;;;;;;5.13;3.10;;;;;;;-146.25;96.85;52512.16;2055042;28;20043;-75
2023/01/23 04:49:11;;;;;;;9.43;3.53;;;;;;;-146.25;97.07;52471.59;2051512;28;20106;-75
2023/01/23 04:50:13;;;;;;;4.47;3.08;;;;;;;-146.25;97.30;52524.31;2055025;28;30642;-75
2023/01/23 04:51:19;;;;;;;5.13;2.97;;;;;;;-146.25;97.15;52526.34;2062336;28;20130;-75
2023/01/23 04:52:20;;;;;;;6.72;3.20;;;;;;;-146.25;96.18;52483.78;2054913;28;27748;-75
2023/01/23 04:53:29;;;;;;;7.80;3.60;;;;;;;-146.25;96.53;52540.53;2055954;28;20166;-75
2023/01/23 04:54:35;;;;;;;8.50;3.70;;;;;;;-146.25;96.03;52477.69;2046035;28;20054;-75
2023/01/23 04:55:37;;;;;;;6.22;3.60;;;;;;;-146.25;96.61;52487.81;2047203;28;20044;-75
2023/01/23 04:56:42;;;;;;;6.63;3.75;;;;;;;-146.25;96.85;52514.19;2063126;28;20122;-75
2023/01/23 04:57:44;;;;;;;6.65;3.22;;;;;;;-146.25;96.69;52489.84;2062883;28;20051;-75
2023/01/23 04:58:55;;;;;;;6.35;3.55;;;;;;;-146.25;95.97;52508.09;2063258;28;20047;-75
2023/01/23 04:59:57;;;;;;;5.63;3.50;;;;;;;-146.25;96.20;52514.19;2062247;28;20475;-75
2023/01/23 05:01:05;;;;;;;6.57;3.40;;;;;;;-146.25;95.76;52483.78;2062535;28;20098;-75
2023/01/23 05:02:09;;;;;;;8.00;3.38;;;;;;;-146.25;96.24;52485.81;2062153;28;20039;-75